createdAt,value
2023-02-25T00:02:26.155Z,22.27
2023-02-25T00:05:13.238Z,18.70
2023-02-25T00:07:59.883Z,14.50
2023-02-25T00:10:57.687Z,19.90
2023-02-25T00:13:45.155Z,16.33
2023-02-25T00:16:32.445Z,26.08
2023-02-25T00:19:18.996Z,11.52
2023-02-25T00:22:05.865Z,14.23
2023-02-25T00:24:54.109Z,6.40
2023-02-25T00:27:42.156Z,10.48
2023-02-25T00:30:30.079Z,9.17
2023-02-25T00:33:16.997Z,11.18
2023-02-25T00:36:08.570Z,10.13
2023-02-25T00:38:57.392Z,10.32
2023-02-25T00:41:43.825Z,12.65
2023-02-25T00:44:31.652Z,6.00
2023-02-25T00:47:20.587Z,9.45
2023-02-25T00:50:09.846Z,15.82
2023-02-25T00:52:56.322Z,10.63
2023-02-25T00:55:43.143Z,7.55
2023-02-25T00:58:30.624Z,13.65
2023-02-25T01:01:20.981Z,8.35
2023-02-25T01:04:08.265Z,14.45
2023-02-25T01:06:55.202Z,12.48
2023-02-25T01:09:41.821Z,7.28
2023-02-25T01:12:28.077Z,9.32
2023-02-25T01:15:14.633Z,10.73
2023-02-25T01:18:02.178Z,20.83
2023-02-25T01:20:48.778Z,13.57
2023-02-25T01:23:35.462Z,11.02
2023-02-25T01:26:22.389Z,14.60
2023-02-25T01:29:10.057Z,21.13
2023-02-25T01:31:58.079Z,15.90
2023-02-25T01:34:46.077Z,14.38
2023-02-25T01:37:32.531Z,14.35
2023-02-25T01:40:19.405Z,17.42
2023-02-25T01:43:07.689Z,15.80
2023-02-25T01:45:54.310Z,15.52
2023-02-25T01:48:42.019Z,12.45
2023-02-25T01:51:31.172Z,23.02
2023-02-25T01:54:21.353Z,21.58
2023-02-25T01:57:10.795Z,17.83
2023-02-25T01:59:57.538Z,16.80
2023-02-25T02:02:45.753Z,25.88
2023-02-25T02:05:43.628Z,19.20
2023-02-25T02:08:34.296Z,16.48
2023-02-25T02:11:20.583Z,20.77
2023-02-25T02:14:09.530Z,18.65
2023-02-25T02:17:17.124Z,18.50
2023-02-25T02:20:14.116Z,13.55
2023-02-25T02:23:25.479Z,14.77
2023-02-25T02:26:43.776Z,22.15
2023-02-25T02:30:02.278Z,22.48
2023-02-25T02:32:57.925Z,19.70
2023-02-25T02:35:52.247Z,16.75
2023-02-25T02:38:46.475Z,16.45
2023-02-25T02:41:36.594Z,16.27
2023-02-25T02:44:28.371Z,19.67
2023-02-25T02:47:20.330Z,14.25
2023-02-25T02:50:10.836Z,18.17
2023-02-25T02:53:00.888Z,13.05
2023-02-25T02:55:52.448Z,21.90
2023-02-25T02:58:44.087Z,26.67
2023-02-25T03:01:34.206Z,16.33
2023-02-25T03:04:27.968Z,18.67
2023-02-25T03:07:17.906Z,28.48
2023-02-25T03:10:09.087Z,21.38
2023-02-25T03:12:56.234Z,28.63
2023-02-25T03:15:43.678Z,25.52
2023-02-25T03:18:38.137Z,24.95
2023-02-25T03:21:33.162Z,21.90
2023-02-25T03:24:24.558Z,24.88
2023-02-25T03:27:25.904Z,21.35
2023-02-25T03:30:19.739Z,22.75
2023-02-25T03:33:12.455Z,27.33
2023-02-25T03:36:00.716Z,18.27
2023-02-25T03:38:51.320Z,23.63
2023-02-25T03:41:44.682Z,16.27
2023-02-25T03:44:34.840Z,16.30
2023-02-25T03:47:23.975Z,15.82
2023-02-25T03:50:16.989Z,19.77
2023-02-25T03:53:06.241Z,22.85
2023-02-25T03:56:12.937Z,26.00
2023-02-25T03:59:04.099Z,30.02
2023-02-25T04:01:54.279Z,18.25
2023-02-25T04:04:41.049Z,21.13
2023-02-25T04:07:27.369Z,21.55
2023-02-25T04:10:17.202Z,22.35
2023-02-25T04:13:05.867Z,26.98
2023-02-25T04:15:53.641Z,17.17
2023-02-25T04:18:40.104Z,24.05
2023-02-25T04:21:29.826Z,20.65
2023-02-25T04:24:16.533Z,27.08
2023-02-25T04:27:03.324Z,24.15
2023-02-25T04:29:49.869Z,25.60
2023-02-25T04:32:37.763Z,20.80
2023-02-25T04:35:24.470Z,13.43
2023-02-25T04:38:11.374Z,25.13
2023-02-25T04:40:57.731Z,25.25
2023-02-25T04:43:45.441Z,18.67
2023-02-25T04:46:36.185Z,21.05
2023-02-25T04:49:24.822Z,20.38
2023-02-25T04:52:11.432Z,24.33
2023-02-25T04:54:57.771Z,15.57
2023-02-25T04:57:44.347Z,19.15
2023-02-25T05:00:30.908Z,19.50
2023-02-25T05:03:17.156Z,17.40
2023-02-25T05:06:06.190Z,35.25
2023-02-25T05:08:52.607Z,25.02
2023-02-25T05:11:39.594Z,22.83
2023-02-25T05:14:26.410Z,22.67
2023-02-25T05:17:12.987Z,23.60
2023-02-25T05:19:59.957Z,12.48
2023-02-25T05:22:48.193Z,17.98
2023-02-25T05:25:34.994Z,22.15
2023-02-25T05:28:21.586Z,22.50
2023-02-25T05:31:10.715Z,15.48
2023-02-25T05:33:57.486Z,12.02
2023-02-25T05:36:43.842Z,13.82
2023-02-25T05:39:32.020Z,14.23
2023-02-25T05:42:18.450Z,25.20
2023-02-25T05:45:05.260Z,28.80
2023-02-25T05:47:51.786Z,19.98
2023-02-25T05:50:41.918Z,19.70
2023-02-25T05:53:28.769Z,12.82
2023-02-25T05:56:18.655Z,16.35
2023-02-25T05:59:05.376Z,13.70
2023-02-25T06:01:52.205Z,11.70
2023-02-25T06:04:38.604Z,14.90
2023-02-25T06:07:25.215Z,12.57
2023-02-25T06:10:12.894Z,18.55
2023-02-25T06:13:00.635Z,17.60
2023-02-25T06:15:47.506Z,15.13
2023-02-25T06:18:36.550Z,18.75
2023-02-25T06:21:23.287Z,18.75
2023-02-25T06:24:11.425Z,19.58
2023-02-25T06:26:58.067Z,13.02
2023-02-25T06:29:48.761Z,17.55
2023-02-25T06:35:23.463Z,24.90
2023-02-25T06:38:10.144Z,18.50
2023-02-25T06:40:56.686Z,17.02
2023-02-25T06:43:43.461Z,23.02
2023-02-25T06:46:31.606Z,23.10
2023-02-25T06:49:18.545Z,22.00
2023-02-25T06:52:05.072Z,18.75
2023-02-25T06:54:52.382Z,16.00
2023-02-25T06:57:39.132Z,25.95
2023-02-25T07:00:25.961Z,29.00
2023-02-25T07:03:14.733Z,20.25
2023-02-25T07:06:01.255Z,26.10
2023-02-25T07:08:47.903Z,21.30
2023-02-25T07:11:36.573Z,23.38
2023-02-25T07:14:23.110Z,28.33
2023-02-25T07:17:09.749Z,22.67
2023-02-25T07:19:57.927Z,25.88
2023-02-25T07:22:44.895Z,17.27
2023-02-25T07:25:31.528Z,16.17
2023-02-25T07:28:18.110Z,23.35
2023-02-25T07:31:06.251Z,31.30
2023-02-25T07:33:53.263Z,23.55
2023-02-25T07:36:41.480Z,23.10
2023-02-25T07:39:27.958Z,20.83
2023-02-25T07:42:14.791Z,20.23
2023-02-25T07:45:09.945Z,18.40
2023-02-25T07:47:56.560Z,24.88
2023-02-25T07:50:44.696Z,20.45
2023-02-25T07:53:33.647Z,20.00
2023-02-25T07:56:22.572Z,23.75
2023-02-25T07:59:09.270Z,19.10
2023-02-25T08:01:56.197Z,21.27
2023-02-25T08:04:43.059Z,16.00
2023-02-25T08:07:30.221Z,18.65
2023-02-25T08:10:18.728Z,37.05
2023-02-25T08:13:05.084Z,20.25
2023-02-25T08:15:51.721Z,25.00
2023-02-25T08:18:38.963Z,15.43
2023-02-25T08:21:26.301Z,19.42
2023-02-25T08:24:13.548Z,13.98
2023-02-25T08:27:02.061Z,15.52
2023-02-25T08:29:49.368Z,22.70
2023-02-25T08:32:36.851Z,18.13
2023-02-25T08:35:25.561Z,14.93
2023-02-25T08:38:13.286Z,10.07
2023-02-25T08:41:01.388Z,15.55
2023-02-25T08:43:54.277Z,18.48
2023-02-25T08:46:41.256Z,22.35
2023-02-25T08:49:27.948Z,14.68
2023-02-25T08:52:14.606Z,15.30
2023-02-25T08:55:01.801Z,17.65
2023-02-25T08:57:48.842Z,20.85
2023-02-25T09:00:37.839Z,15.75
2023-02-25T09:03:24.993Z,25.80
2023-02-25T09:06:12.667Z,16.92
2023-02-25T09:08:59.621Z,12.80
2023-02-25T09:11:47.837Z,18.73
2023-02-25T09:14:35.082Z,13.40
2023-02-25T09:17:22.896Z,11.68
2023-02-25T09:20:11.440Z,12.32
2023-02-25T09:22:58.067Z,9.30
2023-02-25T09:25:45.598Z,6.88
2023-02-25T09:28:32.172Z,5.15
2023-02-25T09:31:20.173Z,3.05
2023-02-25T09:34:10.262Z,8.35
2023-02-25T09:36:57.478Z,10.18
2023-02-25T09:39:44.146Z,10.05
2023-02-25T09:42:45.322Z,8.20
2023-02-25T09:45:34.094Z,6.38
2023-02-25T09:48:27.518Z,7.38
2023-02-25T09:51:21.295Z,7.75
2023-02-25T09:54:17.031Z,7.40
2023-02-25T09:57:05.639Z,6.95
2023-02-25T09:59:54.392Z,6.93
2023-02-25T10:02:49.154Z,9.27
2023-02-25T10:05:48.376Z,5.75
2023-02-25T10:08:45.190Z,6.88
2023-02-25T10:11:44.368Z,7.18
2023-02-25T10:14:52.925Z,2.97
2023-02-25T10:17:49.062Z,5.55
2023-02-25T10:20:47.141Z,5.00
2023-02-25T10:23:52.142Z,5.03
2023-02-25T10:26:43.669Z,8.73
2023-02-25T10:29:36.520Z,5.47
2023-02-25T10:32:26.397Z,4.70
2023-02-25T10:35:17.120Z,5.17
2023-02-25T10:38:03.999Z,2.47
2023-02-25T10:40:54.540Z,7.60
2023-02-25T10:43:41.725Z,3.50
2023-02-25T10:46:34.910Z,5.38
2023-02-25T10:49:25.367Z,4.50
2023-02-25T10:52:17.695Z,4.18
2023-02-25T10:55:04.388Z,8.75
2023-02-25T10:57:52.629Z,11.43
2023-02-25T11:00:39.694Z,9.27
2023-02-25T11:03:30.261Z,6.40
2023-02-25T11:06:25.380Z,5.32
2023-02-25T11:09:38.098Z,7.72
2023-02-25T11:12:24.778Z,7.97
2023-02-25T11:15:44.678Z,6.88
2023-02-25T11:21:31.197Z,6.95
2023-02-25T11:24:20.546Z,7.18
2023-02-25T11:27:09.622Z,6.43
2023-02-25T11:30:05.674Z,4.93
2023-02-25T11:32:57.911Z,8.88
2023-02-25T11:35:44.935Z,8.98
2023-02-25T11:38:35.139Z,9.07
2023-02-25T11:41:24.182Z,4.40
2023-02-25T11:44:22.268Z,7.90
2023-02-25T11:47:24.930Z,8.38
2023-02-25T11:50:25.014Z,9.70
2023-02-25T11:53:25.778Z,4.57
2023-02-25T11:56:25.474Z,9.55
2023-02-25T11:59:30.155Z,8.68
2023-02-25T12:02:33.912Z,6.18
2023-02-25T12:05:45.241Z,8.38
2023-02-25T12:08:40.458Z,7.63
2023-02-25T12:11:53.093Z,3.33
2023-02-25T12:15:15.699Z,3.92
2023-02-25T12:18:29.698Z,7.85
2023-02-25T12:21:50.242Z,3.30
2023-02-25T12:24:47.531Z,8.13
2023-02-25T12:27:55.474Z,7.03
2023-02-25T12:31:30.305Z,9.77
2023-02-25T12:34:38.089Z,6.80
2023-02-25T12:37:47.262Z,7.15
2023-02-25T12:41:01.646Z,7.60
2023-02-25T12:43:51.671Z,4.88
2023-02-25T12:47:02.009Z,11.10
2023-02-25T12:52:55.608Z,6.95
2023-02-25T12:56:09.023Z,5.78
2023-02-25T12:59:18.409Z,5.88
2023-02-25T13:02:44.413Z,4.77
2023-02-25T13:05:51.799Z,4.97
2023-02-25T13:08:53.388Z,4.88
2023-02-25T13:12:10.932Z,10.20
2023-02-25T13:15:05.574Z,4.20
2023-02-25T13:18:13.283Z,6.72
2023-02-25T13:21:18.057Z,7.18
2023-02-25T13:24:21.049Z,6.28
2023-02-25T13:27:43.856Z,6.35
2023-02-25T13:30:40.299Z,5.75
2023-02-25T13:34:03.661Z,6.05
2023-02-25T13:37:04.325Z,7.15
2023-02-25T13:40:12.854Z,11.35
2023-02-25T13:43:09.157Z,5.97
2023-02-25T13:46:29.557Z,4.43
2023-02-25T13:49:34.385Z,11.57
2023-02-25T13:52:29.406Z,7.28
2023-02-25T13:55:41.221Z,10.80
2023-02-25T13:58:45.275Z,9.30
2023-02-25T14:01:57.490Z,6.95
2023-02-25T14:05:13.848Z,5.18
2023-02-25T14:08:13.988Z,6.60
2023-02-25T14:11:14.886Z,6.90
2023-02-25T14:14:19.287Z,14.45
2023-02-25T14:17:33.795Z,4.00
2023-02-25T14:20:35.187Z,6.35
2023-02-25T14:23:30.828Z,3.10
2023-02-25T14:26:31.648Z,4.38
2023-02-25T14:35:20.199Z,8.57
2023-02-25T14:38:11.382Z,6.88
2023-02-25T14:41:12.056Z,7.03
2023-02-25T14:44:05.111Z,7.53
2023-02-25T14:46:57.007Z,5.13
2023-02-25T14:49:51.899Z,5.40
2023-02-25T14:53:24.449Z,3.45
2023-02-25T14:56:56.976Z,6.78
2023-02-25T15:00:05.327Z,5.78
2023-02-25T15:03:22.242Z,4.75
2023-02-25T15:06:31.789Z,7.63
2023-02-25T15:10:02.623Z,7.47
2023-02-25T15:13:12.280Z,8.77
2023-02-25T15:16:41.770Z,6.93
2023-02-25T15:19:55.473Z,10.25
2023-02-25T15:22:54.775Z,19.02
2023-02-25T15:25:49.879Z,7.20
2023-02-25T15:28:40.852Z,6.55
2023-02-25T15:31:30.324Z,11.80
2023-02-25T15:34:38.377Z,4.80
2023-02-25T15:37:36.283Z,9.27
2023-02-25T15:40:55.332Z,6.82
2023-02-25T15:43:45.531Z,4.97
2023-02-25T15:46:46.344Z,8.60
2023-02-25T15:49:35.691Z,13.35
2023-02-25T15:52:57.949Z,6.25
2023-02-25T15:55:45.283Z,8.32
2023-02-25T15:58:52.436Z,6.15
2023-02-25T16:01:43.803Z,5.90
2023-02-25T16:04:48.737Z,6.35
2023-02-25T16:07:39.123Z,3.13
2023-02-25T16:10:29.797Z,4.13
2023-02-25T16:16:07.187Z,7.43
2023-02-25T16:18:56.690Z,4.73
2023-02-25T16:21:48.128Z,7.93
2023-02-25T16:24:37.895Z,6.70
2023-02-25T16:27:45.185Z,7.18
2023-02-25T16:30:37.616Z,5.90
2023-02-25T16:33:35.283Z,6.35
2023-02-25T16:36:32.880Z,9.60
2023-02-25T16:39:23.618Z,10.20
2023-02-25T16:42:15.253Z,7.10
2023-02-25T16:45:05.945Z,5.82
2023-02-25T16:47:57.553Z,5.38
2023-02-25T16:50:48.460Z,5.88
2023-02-25T16:53:35.112Z,8.15
2023-02-25T16:56:25.300Z,13.52
2023-02-25T16:59:19.644Z,9.23
2023-02-25T17:02:23.858Z,9.55
2023-02-25T17:05:23.710Z,10.93
2023-02-25T17:08:18.304Z,10.32
2023-02-25T17:11:07.413Z,6.28
2023-02-25T17:13:56.988Z,13.48
2023-02-25T17:16:44.155Z,7.97
2023-02-25T17:19:31.906Z,10.05
2023-02-25T17:22:22.479Z,6.32
2023-02-25T17:28:02.799Z,12.18
2023-02-25T17:30:50.556Z,10.88
2023-02-25T17:33:47.286Z,5.00
2023-02-25T17:36:36.285Z,4.32
2023-02-25T17:39:23.451Z,8.60
2023-02-25T17:42:31.186Z,8.70
2023-02-25T17:45:42.469Z,8.40
2023-02-25T17:48:32.295Z,3.80
2023-02-25T17:51:19.314Z,7.87
2023-02-25T17:54:08.668Z,11.63
2023-02-25T17:56:59.890Z,8.80
2023-02-25T17:59:53.072Z,5.50
2023-02-25T18:02:41.569Z,9.38
2023-02-25T18:05:28.385Z,7.90
2023-02-25T18:08:20.797Z,6.30
2023-02-25T18:11:25.477Z,6.22
2023-02-25T18:14:27.401Z,15.68
2023-02-25T18:17:23.579Z,6.38
2023-02-25T18:20:28.672Z,13.57
2023-02-25T18:23:20.955Z,6.05
2023-02-25T18:26:19.057Z,5.55
2023-02-25T18:29:09.890Z,7.78
2023-02-25T18:31:56.301Z,10.25
2023-02-25T18:34:44.250Z,12.20
2023-02-25T18:37:33.790Z,13.43
2023-02-25T18:40:24.791Z,12.45
2023-02-25T18:43:16.602Z,19.95
2023-02-25T18:46:03.684Z,5.43
2023-02-25T18:48:50.078Z,12.93
2023-02-25T18:51:38.556Z,9.57
2023-02-25T18:54:25.364Z,12.15
2023-02-25T18:57:19.302Z,4.65
2023-02-25T19:00:06.925Z,6.85
2023-02-25T19:02:55.319Z,10.35
2023-02-25T19:05:42.497Z,10.90
2023-02-25T19:08:30.379Z,10.43
2023-02-25T19:11:20.636Z,8.63
2023-02-25T19:14:08.276Z,11.95
2023-02-25T19:16:56.837Z,12.00
2023-02-25T19:19:46.448Z,6.70
2023-02-25T19:22:33.671Z,15.05
2023-02-25T19:25:24.968Z,10.68
2023-02-25T19:28:11.975Z,8.13
2023-02-25T19:30:58.731Z,13.48
2023-02-25T19:33:45.819Z,12.70
2023-02-25T19:36:32.664Z,9.35
2023-02-25T19:39:19.293Z,13.80
2023-02-25T19:42:08.673Z,10.77
2023-02-25T19:44:55.161Z,11.27
2023-02-25T19:47:41.795Z,10.73
2023-02-25T19:50:28.696Z,15.13
2023-02-25T19:53:15.226Z,9.50
2023-02-25T19:56:03.101Z,14.82
2023-02-25T19:58:51.360Z,22.67
2023-02-25T20:01:38.175Z,32.80
2023-02-25T20:04:25.392Z,32.97
2023-02-25T20:07:12.112Z,33.17
2023-02-25T20:09:58.847Z,25.90
2023-02-25T20:12:47.231Z,19.88
2023-02-25T20:15:35.443Z,22.20
2023-02-25T20:18:21.916Z,33.40
2023-02-25T20:21:08.415Z,15.10
2023-02-25T20:23:54.908Z,17.85
2023-02-25T20:26:41.241Z,21.48
2023-02-25T20:29:28.409Z,18.33
2023-02-25T20:32:16.290Z,16.23
2023-02-25T20:35:03.650Z,29.48
2023-02-25T20:38:03.276Z,17.60
2023-02-25T20:40:50.054Z,15.40
2023-02-25T20:43:37.407Z,15.98
2023-02-25T20:46:26.711Z,15.88
2023-02-25T20:49:17.873Z,12.90
2023-02-25T20:52:05.134Z,13.23
2023-02-25T20:54:51.788Z,14.90
2023-02-25T20:57:38.450Z,11.98
2023-02-25T21:00:25.938Z,12.95
2023-02-25T21:03:12.539Z,7.32
2023-02-25T21:06:00.781Z,9.38
2023-02-25T21:08:47.600Z,9.80
2023-02-25T21:11:34.509Z,10.48
2023-02-25T21:14:21.402Z,9.45
2023-02-25T21:17:09.707Z,13.77
2023-02-25T21:19:56.320Z,11.30
2023-02-25T21:22:44.341Z,10.75
2023-02-25T21:25:31.919Z,9.80
2023-02-25T21:28:18.429Z,14.43
2023-02-25T21:31:07.601Z,15.15
2023-02-25T21:33:54.177Z,13.07
2023-02-25T21:36:40.874Z,9.70
2023-02-25T21:39:28.960Z,14.45
2023-02-25T21:42:15.745Z,8.68
2023-02-25T21:45:02.455Z,12.88
2023-02-25T21:47:49.160Z,9.80
2023-02-25T21:50:35.930Z,17.42
2023-02-25T21:53:23.422Z,13.23
2023-02-25T21:56:14.598Z,13.68
2023-02-25T21:59:03.275Z,11.25
2023-02-25T22:01:50.360Z,7.78
2023-02-25T22:04:37.339Z,7.60
2023-02-25T22:07:24.007Z,14.27
2023-02-25T22:10:12.408Z,7.93
2023-02-25T22:13:00.310Z,21.25
2023-02-25T22:15:48.108Z,23.83
2023-02-25T22:18:35.709Z,14.77
2023-02-25T22:21:23.698Z,13.45
2023-02-25T22:24:10.163Z,9.88
2023-02-25T22:26:56.510Z,15.27
2023-02-25T22:29:44.346Z,16.05
2023-02-25T22:32:36.203Z,9.45
2023-02-25T22:35:23.037Z,12.93
2023-02-25T22:38:12.011Z,17.60
2023-02-25T22:41:01.216Z,9.45
2023-02-25T22:43:48.260Z,15.75
2023-02-25T22:46:38.300Z,17.27
2023-02-25T22:49:25.084Z,15.60
2023-02-25T22:52:12.393Z,24.02
2023-02-25T22:54:58.941Z,18.65
2023-02-25T22:57:45.478Z,31.23
2023-02-25T23:03:43.797Z,24.73
2023-02-25T23:06:43.037Z,11.82
2023-02-25T23:09:30.754Z,10.68
2023-02-25T23:12:17.512Z,12.75
2023-02-25T23:15:03.957Z,11.25
2023-02-25T23:17:50.522Z,9.80
2023-02-25T23:20:40.333Z,9.48
2023-02-25T23:23:38.207Z,12.93
2023-02-25T23:26:27.496Z,8.32
2023-02-25T23:29:15.007Z,8.18
2023-02-25T23:32:01.805Z,11.23
2023-02-25T23:34:49.527Z,8.15
2023-02-25T23:37:38.522Z,7.15
2023-02-25T23:40:25.001Z,8.43
2023-02-25T23:43:11.690Z,6.65
2023-02-25T23:45:58.235Z,9.35
2023-02-25T23:48:44.758Z,4.68
2023-02-25T23:51:31.288Z,8.43
2023-02-25T23:54:20.998Z,4.40
2023-02-25T23:57:07.724Z,10.90
2023-02-25T23:59:54.295Z,8.23
